Latest Weather Observations for Laverton

IDV60901

Issued at 2:31 pm EST Tuesday 29 September 2020 (issued every 10 minutes, with the page automatically refreshed every 10 minutes)

About weather observations | Map of Melbourne area stations | Latest observations for Melbourne area | Other Formats
Station Details ID: 087031 Name: LAVERTON RAAF Lat: -37.86 Lon: 144.76 Height: 20.1 m
Data from the previous 72 hours. | See also: Recent months at Laverton
Date/Time
EST
Temp
°C
App
Temp
°C
Dew
Point
°C
Rel
Hum
%
Delta-T
°C
Wind Press
QNH
hPa
Press
MSL
hPa
Rain since
9am
mm
Dir  Spd
km/h
Gust
km/h
Spd
kts
Gust
kts
29/02:30pm 19.8 13.6 6.2 41 6.8 NNE 28 43 15 23 1017.8 1017.8 0.0
29/02:00pm 19.2 13.0 6.0 42 6.5 NNE 28 39 15 21 1018.6 1018.6 0.0
29/01:30pm 19.1 12.8 5.9 42 6.5 NNE 28 39 15 21 1019.4 1019.4 0.0
29/01:00pm 19.2 13.6 7.3 46 6.0 NNE 26 37 14 20 1020.0 1020.0 0.0
29/12:30pm 18.8 14.0 7.3 47 5.8 NNE 22 33 12 18 1020.7 1020.7 0.0
29/12:00pm 17.5 12.1 6.4 48 5.5 NNE 24 33 13 18 1021.2 1021.2 0.0
29/11:30am 17.4 12.3 6.0 47 5.6 NNE 22 33 12 18 1021.7 1021.7 0.0
29/11:00am 17.4 12.1 6.9 50 5.2 NNE 24 35 13 19 1022.1 1022.1 0.0
29/10:30am 15.7 12.8 8.0 60 3.9 NE 13 17 7 9 1022.7 1022.7 0.0
29/10:00am 14.7 11.3 7.5 62 3.5 NE 15 24 8 13 1022.8 1022.8 0.0
29/09:30am 13.3 10.5 6.9 65 3.1 ENE 11 17 6 9 1023.3 1023.3 0.0
29/09:00am 11.5 8.2 6.6 72 2.3 ENE 13 19 7 10 1023.8 1023.8 0.0
29/08:30am 9.9 7.4 6.4 79 1.6 NNE 9 13 5 7 1024.7 1024.7 0.0
29/08:00am 7.7 5.6 6.5 92 0.5 NNE 7 9 4 5 1025.4 1025.4 0.0
29/07:30am 5.7 3.6 5.6 99 0.0 N 6 9 3 5 1025.1 1025.1 0.0
29/07:00am 4.1 1.6 4.0 99 0.0 NW 6 7 3 4 1025.3 1025.3 0.0
29/06:30am 2.8 -0.1 2.7 99 0.0 NW 7 9 4 5 1025.2 1025.2 0.0
29/06:00am 2.2 -0.6 2.1 99 0.0 NW 6 7 3 4 1024.5 1024.5 0.0
29/05:30am 2.5 -0.4 2.4 99 0.0 NW 7 9 4 5 1024.3 1024.3 0.0
29/05:00am 1.8 -1.6 1.7 99 0.0 NW 9 11 5 6 1024.1 1024.1 0.0
29/04:30am 2.0 -0.8 1.9 99 0.0 NW 6 9 3 5 1023.7 1023.7 0.0
29/04:00am 1.9 -2.3 1.8 99 0.0 NW 13 13 7 7 1024.1 1024.1 0.0
29/03:30am 2.0 -2.2 1.9 99 0.0 NW 13 15 7 8 1024.3 1024.3 0.0
29/03:00am 2.9 -0.3 2.8 99 0.0 ENE 9 13 5 7 1024.2 1024.2 0.0
29/02:30am 2.8 -0.9 2.4 97 0.2 ENE 11 13 6 7 1024.6 1024.6 0.0
29/02:00am 3.8 0.6 3.1 95 0.3 ENE 9 9 5 5 1024.9 1024.9 0.0
29/01:30am 4.4 1.8 3.4 93 0.4 ENE 6 7 3 4 1025.5 1025.5 0.0
29/01:00am 5.1 2.5 4.1 93 0.4 ENE 7 9 4 5 1026.3 1026.3 0.0
29/12:30am 5.9 4.8 4.9 93 0.4 CALM 0 0 0 0 1026.4 1026.4 0.0
29/12:00am 6.2 5.0 4.4 88 0.8 CALM 0 0 0 0 1026.5 1026.5 0.0
 
Date/Time
EST
Temp
°C
App
Temp
°C
Dew
Point
°C
Rel
Hum
%
Delta-T
°C
Wind Press
QNH
hPa
Press
MSL
hPa
Rain since
9am
mm
Dir  Spd
km/h
Gust
km/h
Spd
kts
Gust
kts
28/11:30pm 7.0 4.5 4.8 86 1.0 E 7 11 4 6 1026.4 1026.4 0.0
28/11:00pm 7.6 4.8 5.1 84 1.1 E 9 15 5 8 1026.5 1026.5 0.0
28/10:30pm 7.3 4.5 5.0 85 1.0 E 9 13 5 7 1026.7 1026.7 0.0
28/10:00pm 7.9 5.5 5.2 83 1.2 E 7 9 4 5 1026.8 1026.8 0.0
28/09:30pm 8.6 5.9 5.4 80 1.4 ESE 9 13 5 7 1026.9 1026.9 0.0
28/09:00pm 9.1 6.0 5.5 78 1.6 SE 11 19 6 10 1027.3 1027.3 0.0
28/08:30pm 9.4 6.0 5.8 78 1.6 SE 13 19 7 10 1027.0 1027.0 0.0
28/08:00pm 9.3 6.6 5.7 78 1.6 SSE 9 13 5 7 1026.8 1026.8 0.0
28/07:30pm 9.4 6.3 5.4 76 1.8 SSE 11 17 6 9 1027.0 1027.0 0.0
28/07:00pm 9.8 6.3 5.4 74 2.0 SSE 13 17 7 9 1026.9 1026.9 0.0
28/06:30pm 10.0 6.4 5.2 72 2.2 SSE 13 20 7 11 1026.7 1026.7 0.0
28/06:00pm 10.7 6.9 5.7 71 2.3 SSE 15 20 8 11 1026.7 1026.7 0.0
28/05:30pm 11.4 7.5 5.3 66 2.8 SSE 15 20 8 11 1026.6 1026.6 0.0
28/05:00pm 11.9 8.0 5.3 64 3.0 SSE 15 22 8 12 1026.2 1026.2 0.0
28/04:30pm 12.4 8.4 5.1 61 3.4 SSE 15 20 8 11 1026.5 1026.5 0.0
28/04:00pm 13.1 9.8 4.8 57 3.8 SE 11 15 6 8 1026.6 1026.6 0.0
28/03:30pm 13.1 9.9 5.0 58 3.8 SSE 11 19 6 10 1026.5 1026.5 0.0
28/03:00pm 13.1 9.8 4.3 55 4.0 SSE 11 17 6 9 1026.9 1026.9 0.0
28/02:30pm 12.6 8.9 4.3 57 3.8 SSE 13 20 7 11 1027.1 1027.1 0.0
28/02:00pm 12.6 8.6 4.8 59 3.6 SE 15 24 8 13 1027.4 1027.4 0.0
28/01:30pm 12.0 7.5 4.2 59 3.5 SE 17 28 9 15 1027.7 1027.7 0.0
28/01:00pm 12.2 8.0 5.6 64 3.1 SE 17 20 9 11 1027.9 1027.9 0.0
28/12:30pm 12.3 8.7 5.2 62 3.3 SE 13 20 7 11 1028.4 1028.4 0.0
28/12:00pm 12.2 8.5 4.2 58 3.6 S 13 20 7 11 1028.7 1028.7 0.0
28/11:30am 12.0 8.7 4.7 61 3.3 ESE 11 15 6 8 1029.0 1029.0 0.0
28/11:00am 11.4 8.5 4.4 62 3.1 SE 9 15 5 8 1029.3 1029.3 0.0
28/10:30am 11.3 8.3 4.1 61 3.2 SSE 9 17 5 9 1029.6 1029.6 0.0
28/10:00am 11.3 9.6 5.8 69 2.5 SW 4 13 2 7 1029.9 1029.9 0.0
28/09:30am 9.8 7.0 5.0 72 2.2 WNW 9 11 5 6 1029.8 1029.8 0.0
28/09:00am 8.8 5.9 4.6 75 1.8 NW 9 11 5 6 1029.8 1029.8 0.0
28/08:30am 8.1 5.2 4.9 80 1.4 W 9 11 5 6 1029.4 1029.4 0.0
28/08:00am 7.3 4.7 5.9 91 0.6 W 9 9 5 5 1029.3 1029.3 0.0
28/07:30am 6.3 4.2 5.6 95 0.3 W 6 7 3 4 1029.1 1029.1 0.0
28/07:00am 5.0 2.7 4.7 98 0.1 W 6 7 3 4 1028.9 1028.9 0.0
28/06:30am 3.9 1.1 3.3 96 0.2 W 7 9 4 5 1028.5 1028.5 0.0
28/06:00am 3.6 0.9 2.7 94 0.4 W 6 7 3 4 1028.2 1028.2 0.0
28/05:30am 3.7 1.0 2.8 94 0.4 W 6 7 3 4 1028.1 1028.1 0.0
28/05:00am 4.0 1.3 2.8 92 0.5 W 6 9 3 5 1027.9 1027.9 0.0
28/04:30am 3.8 0.5 2.5 91 0.5 W 9 11 5 6 1027.8 1027.8 0.0
28/04:00am 4.7 1.9 3.2 90 0.6 W 7 11 4 6 1027.8 1027.8 0.0
28/03:30am 4.4 1.2 2.8 89 0.6 W 9 11 5 6 1027.8 1027.8 0.0
28/03:00am 6.1 3.3 3.4 83 1.1 WSW 7 11 4 6 1027.8 1027.8 0.0
28/02:30am 6.8 3.7 3.6 80 1.4 WSW 9 13 5 7 1027.9 1027.9 0.0
28/02:00am 7.3 4.3 4.1 80 1.4 WSW 9 11 5 6 1028.1 1028.1 0.0
28/01:30am 6.9 4.4 4.7 86 1.0 SW 7 11 4 6 1028.2 1028.2 0.0
28/01:00am 7.4 4.9 4.9 84 1.1 SW 7 9 4 5 1028.2 1028.2 0.0
28/12:30am 7.5 5.2 4.8 83 1.2 SW 6 9 3 5 1028.4 1028.4 0.0
28/12:00am 7.7 5.4 4.7 81 1.3 SW 6 7 3 4 1028.4 1028.4 0.0
 
Date/Time
EST
Temp
°C
App
Temp
°C
Dew
Point
°C
Rel
Hum
%
Delta-T
°C
Wind Press
QNH
hPa
Press
MSL
hPa
Rain since
9am
mm
Dir  Spd
km/h
Gust
km/h
Spd
kts
Gust
kts
27/11:30pm 7.5 5.2 4.8 83 1.2 SW 6 6 3 3 1028.4 1028.4 0.0
27/11:00pm 7.4 4.9 5.0 85 1.0 SW 7 9 4 5 1028.5 1028.5 0.0
27/10:30pm 7.4 4.6 5.2 86 1.0 SW 9 9 5 5 1028.6 1028.6 0.0
27/10:00pm 7.7 5.2 4.5 80 1.4 SSW 7 9 4 5 1028.5 1028.5 0.0
27/09:30pm 8.0 5.5 3.7 74 1.8 S 6 7 3 4 1028.6 1028.6 0.0
27/09:00pm 8.8 6.0 3.4 69 2.3 S 7 7 4 4 1028.5 1028.5 0.0
27/08:30pm 9.0 5.9 3.6 69 2.3 SSE 9 11 5 6 1028.5 1028.5 0.0
27/08:00pm 9.3 6.6 3.9 69 2.3 S 7 11 4 6 1028.2 1028.2 0.0
27/07:30pm 9.5 6.4 3.7 67 2.5 SSE 9 11 5 6 1028.1 1028.1 0.0
27/07:00pm 9.5 5.9 3.0 64 2.8 SSE 11 13 6 7 1028.0 1028.0 0.0
27/06:30pm 10.0 6.1 3.5 64 2.8 SSE 13 20 7 11 1027.7 1027.7 0.0
27/06:00pm 10.5 6.5 3.1 60 3.2 S 13 19 7 10 1027.4 1027.4 0.0
27/05:30pm 11.1 6.4 3.4 59 3.4 SSE 17 26 9 14 1027.0 1027.0 0.0
27/05:00pm 11.5 6.8 3.0 56 3.7 SSE 17 24 9 13 1026.8 1026.8 0.0
27/04:30pm 11.9 6.7 2.4 52 4.1 SSE 19 24 10 13 1026.4 1026.4 0.0
27/04:00pm 12.5 7.5 3.5 54 4.0 SSE 19 28 10 15 1026.2 1026.2 0.0
27/03:30pm 12.4 7.0 2.6 51 4.3 SSE 20 28 11 15 1026.2 1026.2 0.0
27/03:00pm 12.4 7.1 2.0 49 4.5 SSE 19 28 10 15 1026.2 1026.2 0.0
27/02:30pm 12.8 7.7 3.2 52 4.3 SSE 19 32 10 17 1026.1 1026.1 0.0
27/02:00pm 12.9 8.5 2.5 49 4.5 S 15 28 8 15 1026.0 1026.0 0.0
27/01:30pm 13.2 8.0 2.4 48 4.7 SSW 19 32 10 17 1026.3 1026.3 0.0
27/01:00pm 12.5 7.6 2.1 49 4.5 SSE 17 28 9 15 1026.5 1026.5 0.0
27/12:30pm 11.7 6.5 2.2 52 4.1 S 19 28 10 15 1026.7 1026.7 0.0
27/12:00pm 12.1 6.9 2.6 52 4.1 SSE 19 28 10 15 1026.7 1026.7 0.0
27/11:30am 12.1 7.0 2.8 53 4.1 S 19 28 10 15 1026.6 1026.6 0.0
27/11:00am 11.9 6.8 2.9 54 3.9 S 19 32 10 17 1026.4 1026.4 0.0
27/10:30am 12.5 6.9 0.9 45 4.9 SSE 20 30 11 16 1026.4 1026.4 0.0
27/10:00am 11.8 6.9 2.3 52 4.1 S 17 26 9 14 1026.3 1026.3 0.0
27/09:30am 10.7 5.6 3.3 60 3.2 SW 19 26 10 14 1026.1 1026.1 0.0
27/09:00am 11.0 6.6 4.9 66 2.8 SW 17 24 9 13 1025.9 1025.9 2.4
27/08:30am 9.8 6.0 6.0 77 1.8 SW 15 22 8 12 1025.4 1025.4 2.4
27/08:00am 8.8 5.2 6.6 86 1.0 WSW 15 19 8 10 1025.2 1025.2 2.4
27/07:30am 8.8 5.7 7.4 91 0.7 WSW 13 17 7 9 1024.6 1024.6 2.4
27/07:00am 7.7 5.6 6.8 94 0.4 WSW 7 9 4 5 1023.9 1023.9 2.4
27/06:30am 7.9 4.9 7.8 99 0.0 WSW 13 17 7 9 1023.5 1023.5 2.4
27/06:00am 7.9 4.9 7.8 99 0.0 WSW 13 17 7 9 1022.8 1022.8 2.2
27/05:30am 7.8 5.2 7.7 99 0.0 WSW 11 15 6 8 1022.4 1022.4 2.2
27/05:00am 8.0 5.8 7.9 99 0.0 W 9 13 5 7 1021.8 1021.8 2.2
27/04:30am 8.2 6.1 8.1 99 0.0 W 9 13 5 7 1021.4 1021.4 2.2
27/04:00am 8.3 5.4 8.2 99 0.0 WSW 13 19 7 10 1021.0 1021.0 2.2
27/03:55am 8.3 5.4 8.2 99 0.0 WSW 13 19 7 10 1021.0 1021.0 2.2
27/03:37am 8.4 5.5 8.3 99 0.0 WSW 13 17 7 9 1020.8 1020.8 1.8
27/03:30am 8.4 5.5 8.3 99 0.0 WSW 13 19 7 10 1020.7 1020.7 1.6
27/03:00am 8.4 5.9 8.3 99 0.0 WSW 11 13 6 7 1020.4 1020.4 1.6
27/02:30am 8.4 4.6 7.6 95 0.4 SW 17 28 9 15 1020.1 1020.1 1.6
27/02:16am 8.8 5.0 7.4 91 0.7 WSW 17 26 9 14 1020.1 1020.1 1.4
27/02:00am 8.9 5.4 7.2 89 0.8 WSW 15 24 8 13 1019.7 1019.7 1.2
27/01:30am 9.0 5.1 7.0 87 0.9 W 17 24 9 13 1019.7 1019.7 1.2
27/01:00am 9.0 4.7 6.8 86 1.0 W 19 26 10 14 1019.7 1019.7 1.2
27/12:30am 9.2 4.2 6.6 84 1.2 WSW 22 35 12 19 1019.4 1019.4 1.2
27/12:00am 9.4 4.1 6.7 83 1.3 W 24 33 13 18 1019.3 1019.3 1.2
 
Date/Time
EST
Temp
°C
App
Temp
°C
Dew
Point
°C
Rel
Hum
%
Delta-T
°C
Wind Press
QNH
hPa
Press
MSL
hPa
Rain since
9am
mm
Dir  Spd
km/h
Gust
km/h
Spd
kts
Gust
kts
26/11:30pm 9.2 4.6 6.3 82 1.3 W 20 28 11 15 1019.0 1019.0 1.2
26/11:00pm 9.5 4.5 6.4 81 1.4 W 22 32 12 17 1018.9 1018.9 1.2
26/10:30pm 9.7 4.8 6.8 82 1.4 W 22 32 12 17 1019.0 1019.0 1.2
26/10:00pm 10.0 4.3 6.7 80 1.5 W 26 35 14 19 1019.0 1019.0 1.2
26/09:30pm 9.9 4.6 6.6 80 1.5 W 24 35 13 19 1018.8 1018.8 1.2
26/09:00pm 10.0 5.4 6.5 79 1.6 W 20 30 11 16 1018.8 1018.8 1.2
26/08:30pm 10.0 4.6 6.5 79 1.6 W 24 35 13 19 1018.6 1018.6 1.2
26/08:00pm 9.8 5.2 6.3 79 1.6 W 20 28 11 15 1018.2 1018.2 1.0
26/07:30pm 9.9 5.1 5.7 75 1.9 W 20 32 11 17 1017.8 1017.8 1.0
26/07:00pm 10.1 5.3 5.7 74 2.0 W 20 28 11 15 1017.2 1017.2 1.0
26/06:30pm 10.4 4.1 5.8 73 2.1 WSW 28 39 15 21 1016.8 1016.8 1.0
26/06:00pm 10.7 5.2 6.1 73 2.1 W 24 33 13 18 1016.4 1016.4 1.0
26/05:41pm 10.2 5.3 6.7 79 1.6 WSW 22 35 12 19 1016.2 1016.2 1.0
26/05:30pm 10.4 4.5 7.5 82 1.4 SW 28 46 15 25 1016.0 1016.0 1.0
26/05:29pm 10.3 4.4 7.4 82 1.4 SW 28 46 15 25 1016.0 1016.0 1.0
26/05:26pm 10.3 3.9 7.0 80 1.6 SW 30 46 16 25 1016.0 1016.0 1.0
26/05:07pm 12.6 6.2 5.1 60 3.5 W 28 50 15 27 1015.4 1015.4 0.8
26/05:00pm 12.1 5.5 4.3 59 3.5 W 28 39 15 21 1015.4 1015.4 0.8
26/04:50pm 12.6 5.3 4.6 58 3.7 W 32 50 17 27 1015.3 1015.3 0.8
26/04:30pm 12.3 6.0 5.5 63 3.2 WSW 28 43 15 23 1015.1 1015.1 0.8
26/04:16pm 11.6 6.6 6.5 71 2.4 WSW 22 35 12 19 1015.1 1015.1 0.8
26/04:05pm 10.8 4.3 6.6 75 2.0 W 30 44 16 24 1015.2 1015.2 0.8
26/04:00pm 11.0 3.9 5.7 70 2.4 WSW 32 44 17 24 1015.1 1015.1 0.8
26/03:30pm 13.0 6.4 4.2 55 4.0 W 28 39 15 21 1014.6 1014.6 0.4
26/03:00pm 13.7 6.7 4.3 53 4.3 WSW 30 44 16 24 1014.6 1014.6 0.4
26/02:43pm 13.4 6.3 3.5 51 4.4 WSW 30 48 16 26 1014.6 1014.6 0.4

Latest Capital City Observations: Canberra | Sydney | Melbourne | Brisbane | Adelaide | Perth | Hobart | Darwin

Other formats

Comma delimited format used in spreadsheet applications
http://www.bom.gov.au/fwo/IDV60901/IDV60901.94865.axf

JavaScript Object Notation format (JSON) in row-major order
http://www.bom.gov.au/fwo/IDV60901/IDV60901.94865.json

Data quality

Most of these data are generated automatically and are frequently updated. Quality checks on data are not normally performed. It is possible for incorrect values to appear. Refer to information at About Latest Weather Observations and please check the disclaimer before using these data.